sensor_id;sensor_type;location;lat;lon;timestamp;P1;durP1;ratioP1;P2;durP2;ratioP2
13238;SDS011;6686;51.292;4.166;2023-06-14T00:00:32;8.33;;;6.17;;
13238;SDS011;6686;51.292;4.166;2023-06-14T00:03:18;9.37;;;6.10;;
13238;SDS011;6686;51.292;4.166;2023-06-14T00:06:04;6.60;;;6.00;;
13238;SDS011;6686;51.292;4.166;2023-06-14T00:08:50;8.57;;;5.63;;
13238;SDS011;6686;51.292;4.166;2023-06-14T00:11:36;8.33;;;5.50;;
13238;SDS011;6686;51.292;4.166;2023-06-14T00:14:22;6.37;;;5.73;;
13238;SDS011;6686;51.292;4.166;2023-06-14T00:17:08;6.80;;;5.47;;
13238;SDS011;6686;51.292;4.166;2023-06-14T00:19:54;7.60;;;5.82;;
13238;SDS011;6686;51.292;4.166;2023-06-14T00:22:39;6.03;;;5.43;;
13238;SDS011;6686;51.292;4.166;2023-06-14T00:25:25;6.17;;;5.37;;
13238;SDS011;6686;51.292;4.166;2023-06-14T00:28:11;6.68;;;5.18;;
13238;SDS011;6686;51.292;4.166;2023-06-14T00:30:57;5.80;;;5.17;;
13238;SDS011;6686;51.292;4.166;2023-06-14T00:33:43;7.03;;;5.97;;
13238;SDS011;6686;51.292;4.166;2023-06-14T00:36:29;6.13;;;5.43;;
13238;SDS011;6686;51.292;4.166;2023-06-14T00:39:14;6.03;;;5.43;;
13238;SDS011;6686;51.292;4.166;2023-06-14T00:42:01;6.80;;;5.27;;
13238;SDS011;6686;51.292;4.166;2023-06-14T00:44:47;7.33;;;5.13;;
13238;SDS011;6686;51.292;4.166;2023-06-14T00:47:32;6.23;;;5.37;;
13238;SDS011;6686;51.292;4.166;2023-06-14T00:50:18;5.30;;;4.80;;
13238;SDS011;6686;51.292;4.166;2023-06-14T00:53:04;5.83;;;5.33;;
13238;SDS011;6686;51.292;4.166;2023-06-14T00:55:50;6.43;;;5.30;;
13238;SDS011;6686;51.292;4.166;2023-06-14T00:58:36;7.40;;;5.30;;
13238;SDS011;6686;51.292;4.166;2023-06-14T01:01:22;6.03;;;5.40;;
13238;SDS011;6686;51.292;4.166;2023-06-14T01:04:08;6.73;;;5.40;;
13238;SDS011;6686;51.292;4.166;2023-06-14T01:06:59;5.87;;;5.07;;
13238;SDS011;6686;51.292;4.166;2023-06-14T01:09:58;6.47;;;5.00;;
13238;SDS011;6686;51.292;4.166;2023-06-14T01:15:56;7.22;;;5.87;;
13238;SDS011;6686;51.292;4.166;2023-06-14T01:18:42;8.23;;;5.90;;
13238;SDS011;6686;51.292;4.166;2023-06-14T01:21:28;7.40;;;5.50;;
13238;SDS011;6686;51.292;4.166;2023-06-14T01:24:14;6.83;;;5.10;;
13238;SDS011;6686;51.292;4.166;2023-06-14T01:27:00;5.73;;;4.80;;
13238;SDS011;6686;51.292;4.166;2023-06-14T01:29:46;7.37;;;5.20;;
13238;SDS011;6686;51.292;4.166;2023-06-14T01:32:31;5.30;;;4.80;;
13238;SDS011;6686;51.292;4.166;2023-06-14T01:35:17;6.53;;;4.90;;
13238;SDS011;6686;51.292;4.166;2023-06-14T01:38:03;6.33;;;4.90;;
13238;SDS011;6686;51.292;4.166;2023-06-14T01:40:49;6.53;;;4.77;;
13238;SDS011;6686;51.292;4.166;2023-06-14T01:43:35;5.53;;;4.87;;
13238;SDS011;6686;51.292;4.166;2023-06-14T01:46:20;6.33;;;4.90;;
13238;SDS011;6686;51.292;4.166;2023-06-14T01:49:06;5.80;;;5.23;;
13238;SDS011;6686;51.292;4.166;2023-06-14T01:51:53;5.23;;;4.73;;
13238;SDS011;6686;51.292;4.166;2023-06-14T01:54:38;5.53;;;4.70;;
13238;SDS011;6686;51.292;4.166;2023-06-14T01:57:24;7.53;;;4.83;;
13238;SDS011;6686;51.292;4.166;2023-06-14T02:00:11;7.17;;;4.97;;
13238;SDS011;6686;51.292;4.166;2023-06-14T02:02:57;6.20;;;5.00;;
13238;SDS011;6686;51.292;4.166;2023-06-14T02:05:43;9.43;;;5.00;;
13238;SDS011;6686;51.292;4.166;2023-06-14T02:08:28;6.37;;;5.30;;
13238;SDS011;6686;51.292;4.166;2023-06-14T02:11:14;6.73;;;4.90;;
13238;SDS011;6686;51.292;4.166;2023-06-14T02:14:00;6.53;;;5.10;;
13238;SDS011;6686;51.292;4.166;2023-06-14T02:16:46;8.47;;;5.80;;
13238;SDS011;6686;51.292;4.166;2023-06-14T02:19:32;4.77;;;4.37;;
13238;SDS011;6686;51.292;4.166;2023-06-14T02:22:18;7.65;;;5.62;;
13238;SDS011;6686;51.292;4.166;2023-06-14T02:25:04;6.53;;;4.60;;
13238;SDS011;6686;51.292;4.166;2023-06-14T02:27:50;6.63;;;4.77;;
13238;SDS011;6686;51.292;4.166;2023-06-14T02:30:36;7.80;;;5.40;;
13238;SDS011;6686;51.292;4.166;2023-06-14T02:33:23;7.50;;;5.87;;
13238;SDS011;6686;51.292;4.166;2023-06-14T02:36:08;6.60;;;5.80;;
13238;SDS011;6686;51.292;4.166;2023-06-14T02:38:54;6.30;;;5.10;;
13238;SDS011;6686;51.292;4.166;2023-06-14T02:41:40;7.30;;;5.10;;
13238;SDS011;6686;51.292;4.166;2023-06-14T02:44:26;6.65;;;5.80;;
13238;SDS011;6686;51.292;4.166;2023-06-14T02:47:12;7.27;;;5.60;;
13238;SDS011;6686;51.292;4.166;2023-06-14T02:49:57;7.17;;;5.73;;
13238;SDS011;6686;51.292;4.166;2023-06-14T02:52:43;6.83;;;5.73;;
13238;SDS011;6686;51.292;4.166;2023-06-14T02:55:29;6.60;;;5.30;;
13238;SDS011;6686;51.292;4.166;2023-06-14T02:58:15;5.70;;;4.93;;
13238;SDS011;6686;51.292;4.166;2023-06-14T03:01:01;6.90;;;5.50;;
13238;SDS011;6686;51.292;4.166;2023-06-14T03:03:47;8.77;;;5.57;;
13238;SDS011;6686;51.292;4.166;2023-06-14T03:06:33;8.30;;;5.70;;
13238;SDS011;6686;51.292;4.166;2023-06-14T03:09:19;8.50;;;5.65;;
13238;SDS011;6686;51.292;4.166;2023-06-14T03:12:05;7.70;;;5.10;;
13238;SDS011;6686;51.292;4.166;2023-06-14T03:14:54;6.03;;;5.43;;
13238;SDS011;6686;51.292;4.166;2023-06-14T03:17:40;6.67;;;5.43;;
13238;SDS011;6686;51.292;4.166;2023-06-14T03:20:26;5.83;;;5.07;;
13238;SDS011;6686;51.292;4.166;2023-06-14T03:23:12;6.27;;;4.80;;
13238;SDS011;6686;51.292;4.166;2023-06-14T03:25:57;6.13;;;4.63;;
13238;SDS011;6686;51.292;4.166;2023-06-14T03:28:43;5.67;;;4.60;;
13238;SDS011;6686;51.292;4.166;2023-06-14T03:31:29;7.90;;;4.80;;
13238;SDS011;6686;51.292;4.166;2023-06-14T03:34:18;7.90;;;5.10;;
13238;SDS011;6686;51.292;4.166;2023-06-14T03:37:04;6.87;;;4.80;;
13238;SDS011;6686;51.292;4.166;2023-06-14T03:39:50;6.23;;;5.40;;
13238;SDS011;6686;51.292;4.166;2023-06-14T03:42:35;6.80;;;5.40;;
13238;SDS011;6686;51.292;4.166;2023-06-14T03:45:22;6.27;;;5.67;;
13238;SDS011;6686;51.292;4.166;2023-06-14T03:48:08;9.53;;;5.83;;
13238;SDS011;6686;51.292;4.166;2023-06-14T03:50:53;7.62;;;6.10;;
13238;SDS011;6686;51.292;4.166;2023-06-14T03:53:39;7.30;;;5.82;;
13238;SDS011;6686;51.292;4.166;2023-06-14T03:56:25;9.65;;;6.03;;
13238;SDS011;6686;51.292;4.166;2023-06-14T03:59:11;10.07;;;5.30;;
13238;SDS011;6686;51.292;4.166;2023-06-14T04:01:57;8.67;;;5.30;;
13238;SDS011;6686;51.292;4.166;2023-06-14T04:04:43;7.90;;;5.27;;
13238;SDS011;6686;51.292;4.166;2023-06-14T04:07:31;5.97;;;4.47;;
13238;SDS011;6686;51.292;4.166;2023-06-14T04:10:17;8.17;;;5.30;;
13238;SDS011;6686;51.292;4.166;2023-06-14T04:13:04;8.20;;;5.27;;
13238;SDS011;6686;51.292;4.166;2023-06-14T04:15:49;7.73;;;5.00;;
13238;SDS011;6686;51.292;4.166;2023-06-14T04:18:35;7.13;;;5.27;;
13238;SDS011;6686;51.292;4.166;2023-06-14T04:21:21;6.63;;;5.27;;
13238;SDS011;6686;51.292;4.166;2023-06-14T04:24:07;6.83;;;4.90;;
13238;SDS011;6686;51.292;4.166;2023-06-14T04:26:52;6.93;;;4.67;;
13238;SDS011;6686;51.292;4.166;2023-06-14T04:29:38;7.10;;;5.00;;
13238;SDS011;6686;51.292;4.166;2023-06-14T04:32:24;7.20;;;5.20;;
13238;SDS011;6686;51.292;4.166;2023-06-14T04:35:13;6.57;;;5.30;;
13238;SDS011;6686;51.292;4.166;2023-06-14T04:37:58;6.07;;;5.17;;
13238;SDS011;6686;51.292;4.166;2023-06-14T04:40:44;13.97;;;6.10;;
13238;SDS011;6686;51.292;4.166;2023-06-14T04:43:31;7.77;;;6.07;;
13238;SDS011;6686;51.292;4.166;2023-06-14T04:46:17;10.73;;;6.50;;
13238;SDS011;6686;51.292;4.166;2023-06-14T04:49:02;8.27;;;6.00;;
13238;SDS011;6686;51.292;4.166;2023-06-14T04:51:48;24.33;;;8.37;;
13238;SDS011;6686;51.292;4.166;2023-06-14T04:54:34;12.53;;;6.37;;
13238;SDS011;6686;51.292;4.166;2023-06-14T04:57:21;12.30;;;6.60;;
13238;SDS011;6686;51.292;4.166;2023-06-14T05:00:06;15.77;;;6.43;;
13238;SDS011;6686;51.292;4.166;2023-06-14T05:02:52;8.93;;;6.30;;
13238;SDS011;6686;51.292;4.166;2023-06-14T05:05:39;14.20;;;6.77;;
13238;SDS011;6686;51.292;4.166;2023-06-14T05:08:24;13.77;;;6.93;;
13238;SDS011;6686;51.292;4.166;2023-06-14T05:11:10;12.00;;;5.90;;
13238;SDS011;6686;51.292;4.166;2023-06-14T05:13:56;10.17;;;6.33;;
13238;SDS011;6686;51.292;4.166;2023-06-14T05:16:42;8.47;;;6.60;;
13238;SDS011;6686;51.292;4.166;2023-06-14T05:19:28;11.73;;;6.40;;
13238;SDS011;6686;51.292;4.166;2023-06-14T05:22:13;16.67;;;6.93;;
13238;SDS011;6686;51.292;4.166;2023-06-14T05:24:59;12.80;;;6.87;;
13238;SDS011;6686;51.292;4.166;2023-06-14T05:27:45;12.77;;;7.40;;
13238;SDS011;6686;51.292;4.166;2023-06-14T05:30:30;10.50;;;7.30;;
13238;SDS011;6686;51.292;4.166;2023-06-14T05:33:19;10.83;;;7.50;;
13238;SDS011;6686;51.292;4.166;2023-06-14T05:36:06;11.50;;;7.60;;
13238;SDS011;6686;51.292;4.166;2023-06-14T05:38:52;8.57;;;6.70;;
13238;SDS011;6686;51.292;4.166;2023-06-14T05:41:40;17.03;;;8.67;;
13238;SDS011;6686;51.292;4.166;2023-06-14T05:44:27;11.03;;;7.17;;
13238;SDS011;6686;51.292;4.166;2023-06-14T05:47:12;8.77;;;7.87;;
13238;SDS011;6686;51.292;4.166;2023-06-14T05:49:58;8.93;;;7.00;;
13238;SDS011;6686;51.292;4.166;2023-06-14T05:52:44;9.97;;;7.73;;
13238;SDS011;6686;51.292;4.166;2023-06-14T05:55:30;11.68;;;7.85;;
13238;SDS011;6686;51.292;4.166;2023-06-14T05:58:16;12.40;;;8.53;;
13238;SDS011;6686;51.292;4.166;2023-06-14T06:01:02;12.43;;;8.27;;
13238;SDS011;6686;51.292;4.166;2023-06-14T06:03:48;11.65;;;7.90;;
13238;SDS011;6686;51.292;4.166;2023-06-14T06:06:34;12.18;;;8.98;;
13238;SDS011;6686;51.292;4.166;2023-06-14T06:09:20;9.85;;;8.35;;
13238;SDS011;6686;51.292;4.166;2023-06-14T06:12:06;10.95;;;7.85;;
13238;SDS011;6686;51.292;4.166;2023-06-14T06:14:52;9.45;;;7.05;;
13238;SDS011;6686;51.292;4.166;2023-06-14T06:17:38;10.27;;;7.12;;
13238;SDS011;6686;51.292;4.166;2023-06-14T06:20:24;12.32;;;7.25;;
13238;SDS011;6686;51.292;4.166;2023-06-14T06:23:10;10.73;;;6.90;;
13238;SDS011;6686;51.292;4.166;2023-06-14T06:25:56;9.32;;;6.85;;
13238;SDS011;6686;51.292;4.166;2023-06-14T06:28:41;11.40;;;7.85;;
13238;SDS011;6686;51.292;4.166;2023-06-14T06:31:27;10.85;;;7.12;;
13238;SDS011;6686;51.292;4.166;2023-06-14T06:34:13;8.15;;;6.65;;
13238;SDS011;6686;51.292;4.166;2023-06-14T06:36:59;8.57;;;6.85;;
13238;SDS011;6686;51.292;4.166;2023-06-14T06:39:45;8.68;;;6.40;;
13238;SDS011;6686;51.292;4.166;2023-06-14T06:42:31;11.18;;;6.60;;
13238;SDS011;6686;51.292;4.166;2023-06-14T06:45:17;9.45;;;6.53;;
13238;SDS011;6686;51.292;4.166;2023-06-14T06:48:03;8.98;;;6.62;;
13238;SDS011;6686;51.292;4.166;2023-06-14T06:50:49;7.37;;;6.53;;
13238;SDS011;6686;51.292;4.166;2023-06-14T06:53:35;7.50;;;6.25;;
13238;SDS011;6686;51.292;4.166;2023-06-14T06:56:21;8.95;;;6.47;;
13238;SDS011;6686;51.292;4.166;2023-06-14T06:59:07;8.35;;;7.03;;
13238;SDS011;6686;51.292;4.166;2023-06-14T07:01:53;9.57;;;6.85;;
13238;SDS011;6686;51.292;4.166;2023-06-14T07:04:39;11.80;;;7.50;;
13238;SDS011;6686;51.292;4.166;2023-06-14T07:07:28;7.47;;;6.78;;
13238;SDS011;6686;51.292;4.166;2023-06-14T07:10:19;7.80;;;7.00;;
13238;SDS011;6686;51.292;4.166;2023-06-14T07:13:02;13.65;;;7.57;;
13238;SDS011;6686;51.292;4.166;2023-06-14T07:15:48;10.23;;;7.30;;
13238;SDS011;6686;51.292;4.166;2023-06-14T07:18:34;10.38;;;7.43;;
13238;SDS011;6686;51.292;4.166;2023-06-14T07:21:20;8.93;;;7.00;;
13238;SDS011;6686;51.292;4.166;2023-06-14T07:24:08;8.48;;;6.65;;
13238;SDS011;6686;51.292;4.166;2023-06-14T07:26:54;9.00;;;7.07;;
13238;SDS011;6686;51.292;4.166;2023-06-14T07:29:40;9.60;;;6.20;;
13238;SDS011;6686;51.292;4.166;2023-06-14T07:32:26;6.43;;;5.03;;
13238;SDS011;6686;51.292;4.166;2023-06-14T07:35:13;9.48;;;6.05;;
13238;SDS011;6686;51.292;4.166;2023-06-14T07:37:59;8.90;;;6.30;;
13238;SDS011;6686;51.292;4.166;2023-06-14T07:40:45;6.90;;;5.28;;
13238;SDS011;6686;51.292;4.166;2023-06-14T07:43:33;7.47;;;5.15;;
13238;SDS011;6686;51.292;4.166;2023-06-14T07:46:19;6.90;;;4.78;;
13238;SDS011;6686;51.292;4.166;2023-06-14T07:49:05;9.40;;;5.85;;
13238;SDS011;6686;51.292;4.166;2023-06-14T07:51:51;10.70;;;5.85;;
13238;SDS011;6686;51.292;4.166;2023-06-14T07:54:37;8.93;;;5.18;;
13238;SDS011;6686;51.292;4.166;2023-06-14T07:57:23;8.57;;;5.45;;
13238;SDS011;6686;51.292;4.166;2023-06-14T08:00:09;6.53;;;5.12;;
13238;SDS011;6686;51.292;4.166;2023-06-14T08:02:55;9.52;;;5.43;;
13238;SDS011;6686;51.292;4.166;2023-06-14T08:05:44;7.47;;;5.50;;
13238;SDS011;6686;51.292;4.166;2023-06-14T08:08:29;5.30;;;4.70;;
13238;SDS011;6686;51.292;4.166;2023-06-14T08:11:16;7.20;;;5.03;;
13238;SDS011;6686;51.292;4.166;2023-06-14T08:14:02;6.18;;;5.07;;
13238;SDS011;6686;51.292;4.166;2023-06-14T08:16:48;8.95;;;5.60;;
13238;SDS011;6686;51.292;4.166;2023-06-14T08:19:34;10.77;;;6.00;;
13238;SDS011;6686;51.292;4.166;2023-06-14T08:22:20;8.88;;;5.25;;
13238;SDS011;6686;51.292;4.166;2023-06-14T08:25:07;7.75;;;4.97;;
13238;SDS011;6686;51.292;4.166;2023-06-14T08:27:53;8.45;;;5.20;;
13238;SDS011;6686;51.292;4.166;2023-06-14T08:30:39;7.75;;;5.70;;
13238;SDS011;6686;51.292;4.166;2023-06-14T08:33:25;7.45;;;5.32;;
13238;SDS011;6686;51.292;4.166;2023-06-14T08:36:11;8.30;;;5.15;;
13238;SDS011;6686;51.292;4.166;2023-06-14T08:39:02;7.75;;;4.70;;
13238;SDS011;6686;51.292;4.166;2023-06-14T08:41:48;6.97;;;4.82;;
13238;SDS011;6686;51.292;4.166;2023-06-14T08:44:34;6.62;;;4.87;;
13238;SDS011;6686;51.292;4.166;2023-06-14T08:47:19;7.45;;;4.93;;
13238;SDS011;6686;51.292;4.166;2023-06-14T08:50:05;10.98;;;4.80;;
13238;SDS011;6686;51.292;4.166;2023-06-14T08:52:54;6.80;;;4.55;;
13238;SDS011;6686;51.292;4.166;2023-06-14T08:55:40;5.40;;;4.28;;
13238;SDS011;6686;51.292;4.166;2023-06-14T08:58:29;8.60;;;4.85;;
13238;SDS011;6686;51.292;4.166;2023-06-14T09:01:15;5.47;;;4.78;;
13238;SDS011;6686;51.292;4.166;2023-06-14T09:04:00;7.93;;;5.00;;
13238;SDS011;6686;51.292;4.166;2023-06-14T09:06:46;8.55;;;5.20;;
13238;SDS011;6686;51.292;4.166;2023-06-14T09:09:32;6.55;;;4.70;;
13238;SDS011;6686;51.292;4.166;2023-06-14T09:12:18;5.18;;;4.68;;
13238;SDS011;6686;51.292;4.166;2023-06-14T09:15:04;5.30;;;4.80;;
13238;SDS011;6686;51.292;4.166;2023-06-14T09:17:51;9.57;;;5.00;;
13238;SDS011;6686;51.292;4.166;2023-06-14T09:20:37;8.70;;;5.10;;
13238;SDS011;6686;51.292;4.166;2023-06-14T09:23:29;8.32;;;5.30;;
13238;SDS011;6686;51.292;4.166;2023-06-14T09:26:15;7.55;;;5.62;;
13238;SDS011;6686;51.292;4.166;2023-06-14T09:29:00;10.65;;;5.97;;
13238;SDS011;6686;51.292;4.166;2023-06-14T09:31:47;7.43;;;5.50;;
13238;SDS011;6686;51.292;4.166;2023-06-14T09:34:33;9.07;;;5.35;;
13238;SDS011;6686;51.292;4.166;2023-06-14T09:37:28;8.30;;;4.95;;
13238;SDS011;6686;51.292;4.166;2023-06-14T09:40:14;7.12;;;5.37;;
13238;SDS011;6686;51.292;4.166;2023-06-14T09:42:59;6.30;;;5.12;;
13238;SDS011;6686;51.292;4.166;2023-06-14T09:45:46;8.27;;;5.18;;
13238;SDS011;6686;51.292;4.166;2023-06-14T09:48:32;7.72;;;5.00;;
13238;SDS011;6686;51.292;4.166;2023-06-14T09:51:18;7.45;;;5.00;;
13238;SDS011;6686;51.292;4.166;2023-06-14T09:54:03;7.45;;;4.82;;
13238;SDS011;6686;51.292;4.166;2023-06-14T09:56:50;6.53;;;4.68;;
13238;SDS011;6686;51.292;4.166;2023-06-14T09:59:36;7.05;;;5.07;;
13238;SDS011;6686;51.292;4.166;2023-06-14T10:02:24;5.80;;;5.20;;
13238;SDS011;6686;51.292;4.166;2023-06-14T10:05:08;6.07;;;4.75;;
13238;SDS011;6686;51.292;4.166;2023-06-14T10:08:14;6.57;;;5.22;;
13238;SDS011;6686;51.292;4.166;2023-06-14T10:10:45;9.60;;;5.33;;
13238;SDS011;6686;51.292;4.166;2023-06-14T10:13:31;10.20;;;6.05;;
13238;SDS011;6686;51.292;4.166;2023-06-14T10:16:20;8.35;;;5.40;;
13238;SDS011;6686;51.292;4.166;2023-06-14T10:19:08;10.93;;;5.28;;
13238;SDS011;6686;51.292;4.166;2023-06-14T10:21:58;9.75;;;5.72;;
13238;SDS011;6686;51.292;4.166;2023-06-14T10:24:44;7.93;;;5.28;;
13238;SDS011;6686;51.292;4.166;2023-06-14T10:27:30;6.03;;;5.10;;
13238;SDS011;6686;51.292;4.166;2023-06-14T10:30:16;11.02;;;5.60;;
13238;SDS011;6686;51.292;4.166;2023-06-14T10:33:05;5.00;;;4.30;;
13238;SDS011;6686;51.292;4.166;2023-06-14T10:36:06;9.50;;;4.62;;
13238;SDS011;6686;51.292;4.166;2023-06-14T10:38:37;6.80;;;4.28;;
13238;SDS011;6686;51.292;4.166;2023-06-14T10:41:23;5.53;;;3.95;;
13238;SDS011;6686;51.292;4.166;2023-06-14T10:47:00;5.60;;;4.05;;
13238;SDS011;6686;51.292;4.166;2023-06-14T10:49:49;6.82;;;4.30;;
13238;SDS011;6686;51.292;4.166;2023-06-14T10:52:33;9.00;;;4.70;;
13238;SDS011;6686;51.292;4.166;2023-06-14T10:55:18;9.80;;;4.45;;
13238;SDS011;6686;51.292;4.166;2023-06-14T10:58:04;5.25;;;4.30;;
13238;SDS011;6686;51.292;4.166;2023-06-14T11:00:50;9.15;;;4.20;;
13238;SDS011;6686;51.292;4.166;2023-06-14T11:03:51;5.78;;;4.18;;
13238;SDS011;6686;51.292;4.166;2023-06-14T11:06:44;6.22;;;4.37;;
13238;SDS011;6686;51.292;4.166;2023-06-14T11:09:39;6.53;;;4.10;;
13238;SDS011;6686;51.292;4.166;2023-06-14T11:12:20;6.22;;;4.05;;
13238;SDS011;6686;51.292;4.166;2023-06-14T11:15:06;7.93;;;4.60;;
13238;SDS011;6686;51.292;4.166;2023-06-14T11:17:52;6.62;;;4.57;;
13238;SDS011;6686;51.292;4.166;2023-06-14T11:20:40;4.97;;;4.37;;
13238;SDS011;6686;51.292;4.166;2023-06-14T11:23:26;6.75;;;5.25;;
13238;SDS011;6686;51.292;4.166;2023-06-14T11:26:12;6.47;;;3.85;;
13238;SDS011;6686;51.292;4.166;2023-06-14T11:28:58;4.80;;;3.90;;
13238;SDS011;6686;51.292;4.166;2023-06-14T11:31:44;7.57;;;4.10;;
13238;SDS011;6686;51.292;4.166;2023-06-14T11:34:33;6.30;;;4.20;;
13238;SDS011;6686;51.292;4.166;2023-06-14T11:37:19;6.37;;;4.18;;
13238;SDS011;6686;51.292;4.166;2023-06-14T11:40:05;5.78;;;4.03;;
13238;SDS011;6686;51.292;4.166;2023-06-14T11:42:54;9.50;;;5.53;;
13238;SDS011;6686;51.292;4.166;2023-06-14T11:45:36;9.60;;;4.32;;
13238;SDS011;6686;51.292;4.166;2023-06-14T11:48:22;6.80;;;3.60;;
13238;SDS011;6686;51.292;4.166;2023-06-14T11:51:08;4.72;;;3.90;;
13238;SDS011;6686;51.292;4.166;2023-06-14T11:53:54;6.43;;;3.85;;
13238;SDS011;6686;51.292;4.166;2023-06-14T11:56:40;10.02;;;4.07;;
13238;SDS011;6686;51.292;4.166;2023-06-14T11:59:26;6.15;;;3.67;;
13238;SDS011;6686;51.292;4.166;2023-06-14T12:02:15;6.47;;;4.05;;
13238;SDS011;6686;51.292;4.166;2023-06-14T12:05:04;4.45;;;3.90;;
13238;SDS011;6686;51.292;4.166;2023-06-14T12:07:47;5.68;;;3.50;;
13238;SDS011;6686;51.292;4.166;2023-06-14T12:10:39;6.62;;;3.83;;
13238;SDS011;6686;51.292;4.166;2023-06-14T12:13:25;5.72;;;4.22;;
13238;SDS011;6686;51.292;4.166;2023-06-14T12:16:11;5.80;;;3.90;;
13238;SDS011;6686;51.292;4.166;2023-06-14T12:18:59;7.55;;;3.90;;
13238;SDS011;6686;51.292;4.166;2023-06-14T12:21:45;7.65;;;3.85;;
13238;SDS011;6686;51.292;4.166;2023-06-14T12:24:28;7.37;;;3.95;;
13238;SDS011;6686;51.292;4.166;2023-06-14T12:27:15;6.90;;;3.53;;
13238;SDS011;6686;51.292;4.166;2023-06-14T12:30:01;6.37;;;3.45;;
13238;SDS011;6686;51.292;4.166;2023-06-14T12:32:46;5.95;;;3.42;;
13238;SDS011;6686;51.292;4.166;2023-06-14T12:35:32;4.80;;;3.85;;
13238;SDS011;6686;51.292;4.166;2023-06-14T12:38:18;5.12;;;3.47;;
13238;SDS011;6686;51.292;4.166;2023-06-14T12:41:05;5.07;;;3.87;;
13238;SDS011;6686;51.292;4.166;2023-06-14T12:43:50;4.82;;;3.35;;
13238;SDS011;6686;51.292;4.166;2023-06-14T12:46:36;8.80;;;3.42;;
13238;SDS011;6686;51.292;4.166;2023-06-14T12:49:22;3.90;;;3.37;;
13238;SDS011;6686;51.292;4.166;2023-06-14T12:52:08;5.97;;;3.37;;
13238;SDS011;6686;51.292;4.166;2023-06-14T12:54:54;7.87;;;3.60;;
13238;SDS011;6686;51.292;4.166;2023-06-14T12:57:43;3.60;;;3.30;;
13238;SDS011;6686;51.292;4.166;2023-06-14T13:00:29;7.43;;;3.58;;
13238;SDS011;6686;51.292;4.166;2023-06-14T13:03:16;7.53;;;3.10;;
13238;SDS011;6686;51.292;4.166;2023-06-14T13:06:07;4.90;;;3.30;;
13238;SDS011;6686;51.292;4.166;2023-06-14T13:08:53;5.68;;;3.28;;
13238;SDS011;6686;51.292;4.166;2023-06-14T13:11:40;5.05;;;3.20;;
13238;SDS011;6686;51.292;4.166;2023-06-14T13:14:25;10.10;;;3.80;;
13238;SDS011;6686;51.292;4.166;2023-06-14T13:17:11;7.20;;;3.37;;
13238;SDS011;6686;51.292;4.166;2023-06-14T13:19:57;13.13;;;4.22;;
13238;SDS011;6686;51.292;4.166;2023-06-14T13:22:43;6.12;;;2.92;;
13238;SDS011;6686;51.292;4.166;2023-06-14T13:25:29;2.95;;;2.45;;
13238;SDS011;6686;51.292;4.166;2023-06-14T13:28:15;6.40;;;2.60;;
13238;SDS011;6686;51.292;4.166;2023-06-14T13:31:01;3.00;;;2.50;;
13238;SDS011;6686;51.292;4.166;2023-06-14T13:33:47;3.55;;;2.00;;
13238;SDS011;6686;51.292;4.166;2023-06-14T13:36:33;8.52;;;2.90;;
13238;SDS011;6686;51.292;4.166;2023-06-14T13:39:19;4.85;;;2.20;;
13238;SDS011;6686;51.292;4.166;2023-06-14T13:42:05;2.67;;;2.10;;
13238;SDS011;6686;51.292;4.166;2023-06-14T13:44:52;13.85;;;2.85;;
13238;SDS011;6686;51.292;4.166;2023-06-14T13:47:38;8.32;;;2.65;;
13238;SDS011;6686;51.292;4.166;2023-06-14T13:50:27;3.58;;;2.17;;
13238;SDS011;6686;51.292;4.166;2023-06-14T13:53:16;2.95;;;2.33;;
13238;SDS011;6686;51.292;4.166;2023-06-14T13:56:04;4.45;;;2.05;;
13238;SDS011;6686;51.292;4.166;2023-06-14T13:58:50;7.68;;;2.37;;
13238;SDS011;6686;51.292;4.166;2023-06-14T14:01:36;5.85;;;2.20;;
13238;SDS011;6686;51.292;4.166;2023-06-14T14:04:22;5.28;;;2.25;;
13238;SDS011;6686;51.292;4.166;2023-06-14T14:07:08;2.65;;;1.95;;
13238;SDS011;6686;51.292;4.166;2023-06-14T14:09:54;8.90;;;2.15;;
13238;SDS011;6686;51.292;4.166;2023-06-14T14:12:40;5.05;;;2.05;;
13238;SDS011;6686;51.292;4.166;2023-06-14T14:15:28;4.40;;;2.28;;
13238;SDS011;6686;51.292;4.166;2023-06-14T14:18:14;4.68;;;1.92;;
13238;SDS011;6686;51.292;4.166;2023-06-14T14:21:00;4.25;;;2.15;;
13238;SDS011;6686;51.292;4.166;2023-06-14T14:23:46;6.30;;;2.50;;
13238;SDS011;6686;51.292;4.166;2023-06-14T14:26:45;8.63;;;2.28;;
13238;SDS011;6686;51.292;4.166;2023-06-14T14:29:31;4.50;;;1.90;;
13238;SDS011;6686;51.292;4.166;2023-06-14T14:32:21;3.90;;;2.17;;
13238;SDS011;6686;51.292;4.166;2023-06-14T14:35:20;4.15;;;2.20;;
13238;SDS011;6686;51.292;4.166;2023-06-14T14:38:25;8.10;;;2.40;;
13238;SDS011;6686;51.292;4.166;2023-06-14T14:41:11;3.35;;;2.40;;
13238;SDS011;6686;51.292;4.166;2023-06-14T14:43:57;3.65;;;2.12;;
13238;SDS011;6686;51.292;4.166;2023-06-14T14:46:43;2.78;;;2.20;;
13238;SDS011;6686;51.292;4.166;2023-06-14T14:49:32;3.60;;;2.08;;
13238;SDS011;6686;51.292;4.166;2023-06-14T14:52:17;6.72;;;3.10;;
13238;SDS011;6686;51.292;4.166;2023-06-14T14:55:03;2.67;;;2.40;;
13238;SDS011;6686;51.292;4.166;2023-06-14T14:57:50;3.35;;;2.05;;
13238;SDS011;6686;51.292;4.166;2023-06-14T15:00:35;3.70;;;2.50;;
13238;SDS011;6686;51.292;4.166;2023-06-14T15:03:21;5.62;;;2.28;;
13238;SDS011;6686;51.292;4.166;2023-06-14T15:06:07;5.32;;;2.30;;
13238;SDS011;6686;51.292;4.166;2023-06-14T15:08:54;2.30;;;2.10;;
13238;SDS011;6686;51.292;4.166;2023-06-14T15:11:40;2.87;;;2.58;;
13238;SDS011;6686;51.292;4.166;2023-06-14T15:14:29;7.90;;;2.92;;
13238;SDS011;6686;51.292;4.166;2023-06-14T15:17:15;4.93;;;2.45;;
13238;SDS011;6686;51.292;4.166;2023-06-14T15:20:01;9.45;;;2.50;;
13238;SDS011;6686;51.292;4.166;2023-06-14T15:22:47;15.50;;;3.60;;
13238;SDS011;6686;51.292;4.166;2023-06-14T15:25:42;5.15;;;2.55;;
13238;SDS011;6686;51.292;4.166;2023-06-14T15:28:56;5.37;;;2.28;;
13238;SDS011;6686;51.292;4.166;2023-06-14T15:31:42;7.75;;;3.17;;
13238;SDS011;6686;51.292;4.166;2023-06-14T15:34:28;5.90;;;2.60;;
13238;SDS011;6686;51.292;4.166;2023-06-14T15:37:14;8.93;;;2.72;;
13238;SDS011;6686;51.292;4.166;2023-06-14T15:40:00;8.43;;;2.92;;
13238;SDS011;6686;51.292;4.166;2023-06-14T15:42:47;2.75;;;2.37;;
13238;SDS011;6686;51.292;4.166;2023-06-14T15:45:33;4.72;;;2.28;;
13238;SDS011;6686;51.292;4.166;2023-06-14T15:48:18;6.62;;;2.60;;
13238;SDS011;6686;51.292;4.166;2023-06-14T15:51:04;3.80;;;2.30;;
13238;SDS011;6686;51.292;4.166;2023-06-14T15:53:50;5.70;;;2.58;;
13238;SDS011;6686;51.292;4.166;2023-06-14T15:56:36;3.78;;;2.05;;
13238;SDS011;6686;51.292;4.166;2023-06-14T15:59:21;2.95;;;2.10;;
13238;SDS011;6686;51.292;4.166;2023-06-14T16:02:07;4.00;;;2.30;;
13238;SDS011;6686;51.292;4.166;2023-06-14T16:04:53;3.28;;;2.25;;
13238;SDS011;6686;51.292;4.166;2023-06-14T16:07:39;4.30;;;2.40;;
13238;SDS011;6686;51.292;4.166;2023-06-14T16:10:25;3.33;;;1.87;;
13238;SDS011;6686;51.292;4.166;2023-06-14T16:13:11;3.15;;;2.17;;
13238;SDS011;6686;51.292;4.166;2023-06-14T16:15:57;2.72;;;2.30;;
13238;SDS011;6686;51.292;4.166;2023-06-14T16:18:42;3.35;;;2.17;;
13238;SDS011;6686;51.292;4.166;2023-06-14T16:21:29;3.75;;;2.10;;
13238;SDS011;6686;51.292;4.166;2023-06-14T16:24:14;2.35;;;2.15;;
13238;SDS011;6686;51.292;4.166;2023-06-14T16:27:00;6.80;;;2.72;;
13238;SDS011;6686;51.292;4.166;2023-06-14T16:29:46;7.85;;;2.65;;
13238;SDS011;6686;51.292;4.166;2023-06-14T16:32:32;2.75;;;2.08;;
13238;SDS011;6686;51.292;4.166;2023-06-14T16:35:18;2.62;;;2.28;;
13238;SDS011;6686;51.292;4.166;2023-06-14T16:38:04;4.97;;;2.10;;
13238;SDS011;6686;51.292;4.166;2023-06-14T16:40:50;3.58;;;2.33;;
13238;SDS011;6686;51.292;4.166;2023-06-14T16:43:36;3.30;;;2.65;;
13238;SDS011;6686;51.292;4.166;2023-06-14T16:46:28;4.62;;;2.30;;
13238;SDS011;6686;51.292;4.166;2023-06-14T16:49:13;3.62;;;2.20;;
13238;SDS011;6686;51.292;4.166;2023-06-14T16:51:59;4.30;;;2.15;;
13238;SDS011;6686;51.292;4.166;2023-06-14T16:54:45;2.60;;;2.37;;
13238;SDS011;6686;51.292;4.166;2023-06-14T16:57:31;4.25;;;2.30;;
13238;SDS011;6686;51.292;4.166;2023-06-14T17:00:17;3.40;;;2.05;;
13238;SDS011;6686;51.292;4.166;2023-06-14T17:03:03;2.50;;;2.12;;